Dickey, North Dakota
Current Conditions -  °F | °C
As of 12:56 PM on Thursday 18 Dec 2014 (Local Time) from KJMS Reporting Station
Overcast Overcast  
Wind Chill:   Ceiling: 1000
Heat Index: 20°   Visibility: 10mi
Dew Point: 15°   Wind: 9mph
Humidity: 81%   Direction: 170°S
Pressure: 30.1"   Gusts: NA
Location:  46.54°N, 98.47°W
Report Text: KJMS 181856Z AUTO 17008KT 10SM OVC010 M07/M09 A3010 RMK AO2 SLP227 T10671094
Loading
Personal Weather Stations






























Interactive Weather Map New forecast layout! Learn more

10-Day Weather Forecast

Advertisements
Track Severe Weather on mobile